This is the latest recevied weather packets stored in our database for station/object KK7RJD. If no packets are shown the sender has not sent any weather packets the latest 10 day(s).
| Time | Temp. | Humidity | Pressure | Rain* | Wind** | Luminosity | Snow |
|---|---|---|---|---|---|---|---|
| 1777391946 | 5.56° C | 67% | 1016.9 hPa | 0 mm | - | 625 W/m² | - |
| 1777391641 | 5.56° C | 66% | 1017 hPa | 0 mm | - | 593 W/m² | - |
| 1777391338 | 5.56° C | 67% | 1017.3 hPa | 0 mm | - | 548 W/m² | - |
| 1777391035 | 5° C | 70% | 1017.1 hPa | 0 mm | - | 417 W/m² | - |
| 1777390730 | 5° C | 70% | 1017 hPa | 0 mm | - | 438 W/m² | - |
| 1777390427 | 4.44° C | 72% | 1016.8 hPa | 0 mm | - | 388 W/m² | - |
| 1777390123 | 3.89° C | 73% | 1017.1 hPa | 0 mm | - | 380 W/m² | - |
| 1777389820 | 3.89° C | 73% | 1016.9 hPa | 0 mm | - | 358 W/m² | - |
| 1777389518 | 3.33° C | 74% | 1016.9 hPa | 0 mm | - | 340 W/m² | - |
| 1777389214 | 3.33° C | 74% | 1016.9 hPa | 0 mm | - | 179 W/m² | - |
| 1777388912 | 2.78° C | 75% | 1016.8 hPa | 0 mm | - | 159 W/m² | - |
| 1777388608 | 3.33° C | 72% | 1016.9 hPa | 0 mm | - | 156 W/m² | - |
| 1777388305 | 3.33° C | 71% | 1016.9 hPa | 0 mm | - | 305 W/m² | - |
| 1777388004 | 3.33° C | 73% | 1016.9 hPa | 0 mm | - | 393 W/m² | - |
| 1777387701 | 3.33° C | 71% | 1016.8 hPa | 0 mm | - | 182 W/m² | - |
| 1777387398 | 3.33° C | 72% | 1016.9 hPa | 0 mm | - | 93 W/m² | - |
| 1777387092 | 3.33° C | 73% | 1016.9 hPa | 0 mm | - | 301 W/m² | - |
| 1777386789 | 3.33° C | 76% | 1016.7 hPa | 0 mm | - | 301 W/m² | - |
| 1777386486 | 2.78° C | 79% | 1016.9 hPa | 0 mm | - | 276 W/m² | - |
| 1777386183 | 2.22° C | 82% | 1016.5 hPa | 0 mm | - | 246 W/m² | - |
| 1777385880 | 1.67° C | 83% | 1016.7 hPa | 0 mm | - | 211 W/m² | - |
| 1777385576 | 1.67° C | 84% | 1016.6 hPa | 0 mm | - | 173 W/m² | - |
| 1777385274 | 2.22° C | 82% | 1016.7 hPa | 0 mm | - | 137 W/m² | - |
| 1777384969 | 2.22° C | 86% | 1016.6 hPa | 0 mm | - | 162 W/m² | - |
| 1777384667 | 0.56° C | 90% | 1016.7 hPa | 0 mm | - | 196 W/m² | - |
* Rain latest hour (hover to see other rain measurements)
** Current wind speed in m/s (hover to see current wind gust speed)